Time;durP1;ratioP1;P1;durP2;ratioP2;P2;SDS_P1;SDS_P2;PMS_P1;PMS_P2;Temp;Humidity;BMP_temperature;BMP_pressure;BME280_temperature;BME280_humidity;BME280_pressure;Samples;Min_cycle;Max_cycle;Signal;HPM_P1;HPM_P2
2023/09/14 00:01:22;;;;;;;14.43;7.38;;;22.40;92.20;;;;;;7393195;19;20021;-79
2023/09/14 00:03:51;;;;;;;14.55;8.10;;;22.40;92.10;;;;;;7391298;19;20002;-78
2023/09/14 00:06:22;;;;;;;17.95;8.23;;;22.40;92.10;;;;;;7392193;19;20022;-78
2023/09/14 00:08:51;;;;;;;11.02;7.18;;;22.30;92.20;;;;;;7390436;19;20011;-78
2023/09/14 00:11:20;;;;;;;17.77;7.40;;;22.30;92.20;;;;;;7413142;19;20032;-79
2023/09/14 00:13:49;;;;;;;19.20;7.85;;;22.40;92.20;;;;;;7393504;19;20011;-78
2023/09/14 00:16:18;;;;;;;16.42;7.45;;;22.40;92.20;;;;;;7391201;19;20003;-79
2023/09/14 00:18:47;;;;;;;14.73;8.10;;;22.40;92.20;;;;;;7391183;19;20007;-78
2023/09/14 00:21:15;;;;;;;12.45;7.25;;;22.30;92.10;;;;;;7393273;19;20007;-79
2023/09/14 00:23:47;;;;;;;21.60;7.68;;;22.30;92.10;;;;;;7391750;19;20017;-79
2023/09/14 00:26:15;;;;;;;20.70;8.32;;;22.30;92.00;;;;;;7410791;19;19999;-78
2023/09/14 00:28:44;;;;;;;16.10;8.00;;;22.30;92.00;;;;;;7392151;19;20007;-78
2023/09/14 00:31:13;;;;;;;18.40;8.13;;;22.30;92.10;;;;;;7391678;19;20006;-79
2023/09/14 00:33:42;;;;;;;15.70;8.27;;;22.30;92.10;;;;;;7391177;19;20074;-79
2023/09/14 00:36:10;;;;;;;23.27;9.23;;;22.20;91.90;;;;;;7391752;19;20350;-79
2023/09/14 00:38:39;;;;;;;17.60;8.85;;;22.10;91.90;;;;;;7390037;19;20014;-79
2023/09/14 00:41:11;;;;;;;16.65;8.88;;;22.10;92.10;;;;;;7410490;19;20215;-79
2023/09/14 00:43:40;;;;;;;;;;;22.00;92.20;;;;;;7389576;19;20375;-79
2023/09/14 00:46:11;;;;;;;20.30;8.80;;;22.00;92.20;;;;;;7390925;19;19939;-79
2023/09/14 00:48:40;;;;;;;20.17;8.18;;;21.90;92.20;;;;;;7392436;19;20011;-79
2023/09/14 00:51:09;;;;;;;19.23;8.32;;;21.90;92.40;;;;;;7392938;19;20003;-79
2023/09/14 00:53:38;;;;;;;18.42;8.18;;;21.90;92.40;;;;;;7396049;19;20027;-79
2023/09/14 00:56:08;;;;;;;17.08;7.53;;;21.80;92.40;;;;;;7415189;19;20018;-79
2023/09/14 00:58:42;;;;;;;12.15;7.28;;;21.80;92.40;;;;;;7397499;19;20015;-79
2023/09/14 01:01:14;;;;;;;23.02;8.23;;;21.80;92.40;;;;;;7400585;19;20026;-79
2023/09/14 01:03:43;;;;;;;19.65;8.57;;;21.80;92.40;;;;;;7391319;19;20006;-78
2023/09/14 01:06:13;;;;;;;17.15;8.55;;;21.80;92.40;;;;;;7389189;19;20289;-78
2023/09/14 01:08:42;;;;;;;18.45;8.70;;;21.80;92.40;;;;;;7389417;19;20014;-78
2023/09/14 01:11:11;;;;;;;16.00;8.57;;;21.80;92.50;;;;;;7411934;19;20473;-79
2023/09/14 01:13:51;;;;;;;20.75;8.98;;;21.70;92.50;;;;;;7392362;19;20017;-78
2023/09/14 01:16:27;;;;;;;17.73;8.25;;;21.70;92.60;;;;;;7391075;19;20007;-78
2023/09/14 01:19:04;;;;;;;12.10;7.97;;;21.70;92.60;;;;;;7391763;19;20078;-79
2023/09/14 01:21:59;;;;;;;19.30;7.93;;;21.70;92.60;;;;;;7392909;19;19999;-79
2023/09/14 01:24:46;;;;;;;17.92;8.25;;;21.70;92.60;;;;;;7392935;19;20003;-80
2023/09/14 01:27:18;;;;;;;15.00;8.43;;;21.70;92.60;;;;;;7392972;19;20014;-80
2023/09/14 01:29:46;;;;;;;13.55;7.05;;;21.70;92.70;;;;;;7392964;19;20018;-78
2023/09/14 01:32:15;;;;;;;15.25;8.00;;;21.70;92.70;;;;;;7417786;19;20003;-79
2023/09/14 01:34:44;;;;;;;21.33;7.75;;;21.70;92.60;;;;;;7400302;19;20006;-79
2023/09/14 01:37:13;;;;;;;12.80;7.15;;;21.70;92.60;;;;;;7399782;19;20035;-79
2023/09/14 01:39:42;;;;;;;26.48;7.93;;;21.70;92.60;;;;;;7399313;19;20006;-78
2023/09/14 01:42:11;;;;;;;14.85;7.22;;;21.70;92.50;;;;;;7391268;19;20003;-78
2023/09/14 01:44:44;;;;;;;15.25;7.88;;;21.70;92.30;;;;;;7391235;19;20388;-79
2023/09/14 01:47:14;;;;;;;19.65;7.60;;;21.70;92.30;;;;;;7408951;19;20010;-79
2023/09/14 01:49:42;;;;;;;15.43;7.88;;;21.60;92.30;;;;;;7388713;19;20010;-80
2023/09/14 01:52:12;;;;;;;22.65;7.57;;;21.70;92.40;;;;;;7387689;19;20023;-79
2023/09/14 01:54:40;;;;;;;17.25;7.65;;;21.60;92.20;;;;;;7387435;19;20006;-79
2023/09/14 01:57:09;;;;;;;18.27;8.35;;;21.70;92.00;;;;;;7387844;19;20023;-79
2023/09/14 01:59:38;;;;;;;15.70;8.30;;;21.70;92.00;;;;;;7396532;19;20018;-80
2023/09/14 02:02:09;;;;;;;15.23;7.72;;;21.60;92.00;;;;;;7408269;19;20011;-79
2023/09/14 02:04:38;;;;;;;;;;;21.50;92.10;;;;;;7388070;19;20015;-79
2023/09/14 02:07:07;;;;;;;14.00;7.32;;;21.50;92.30;;;;;;7387736;19;19911;-79
2023/09/14 02:09:35;;;;;;;13.50;7.72;;;21.50;92.30;;;;;;7386497;19;19998;-79
2023/09/14 02:12:04;;;;;;;13.77;6.93;;;21.40;92.30;;;;;;7386351;19;20031;-79
2023/09/14 02:14:33;;;;;;;12.23;6.80;;;21.50;92.40;;;;;;7408894;19;20014;-78
2023/09/14 02:17:03;;;;;;;18.00;6.95;;;21.50;92.40;;;;;;7387239;19;20035;-79
2023/09/14 02:19:34;;;;;;;11.15;7.10;;;21.50;92.40;;;;;;7385927;19;20007;-79
2023/09/14 02:22:03;;;;;;;;;;;21.40;92.30;;;;;;7386050;19;20268;-78
2023/09/14 02:24:31;;;;;;;12.65;6.65;;;21.50;92.40;;;;;;7385841;19;19911;-79
2023/09/14 02:27:00;;;;;;;19.10;7.57;;;21.50;92.30;;;;;;7383565;19;20043;-78
2023/09/14 02:29:30;;;;;;;18.73;7.45;;;21.50;92.30;;;;;;7406185;19;20002;-78
2023/09/14 02:31:59;;;;;;;18.65;7.13;;;21.50;92.20;;;;;;7384431;19;20007;-79
2023/09/14 02:34:28;;;;;;;11.68;7.78;;;21.50;92.20;;;;;;7382713;19;20002;-79
2023/09/14 02:36:59;;;;;;;18.88;8.70;;;21.40;92.20;;;;;;7382210;19;20007;-79
2023/09/14 02:39:28;;;;;;;;;;;21.40;92.10;;;;;;7396148;19;20038;-78
2023/09/14 02:41:56;;;;;;;16.63;7.60;;;21.40;92.20;;;;;;7396958;19;19931;-78
2023/09/14 02:44:25;;;;;;;13.70;7.88;;;21.40;92.10;;;;;;7419798;19;20010;-78
2023/09/14 02:46:54;;;;;;;17.95;7.55;;;21.30;92.00;;;;;;7398300;19;20042;-78
2023/09/14 02:49:23;;;;;;;14.90;7.55;;;21.30;92.10;;;;;;7396065;19;20085;-78
2023/09/14 02:51:51;;;;;;;11.68;7.22;;;21.20;92.10;;;;;;7386997;19;20374;-79
2023/09/14 02:54:23;;;;;;;15.40;8.40;;;21.20;92.20;;;;;;7385651;19;20011;-78
2023/09/14 02:56:52;;;;;;;21.02;9.07;;;21.20;92.20;;;;;;7383404;19;20018;-78
2023/09/14 02:59:20;;;;;;;20.35;8.38;;;21.20;92.20;;;;;;7404637;19;20010;-79
2023/09/14 03:01:50;;;;;;;16.63;7.40;;;21.10;92.30;;;;;;7384998;19;20007;-78
2023/09/14 03:04:18;;;;;;;13.15;7.45;;;21.10;92.50;;;;;;7385375;19;20003;-79
2023/09/14 03:06:47;;;;;;;14.88;7.68;;;21.10;92.50;;;;;;7390803;19;20007;-78
2023/09/14 03:09:16;;;;;;;13.32;7.75;;;21.10;92.50;;;;;;7391308;19;20002;-79
2023/09/14 03:11:47;;;;;;;18.23;7.60;;;21.10;92.40;;;;;;7390717;19;20026;-79
2023/09/14 03:14:16;;;;;;;;;;;21.10;92.30;;;;;;7412236;19;20010;-78
2023/09/14 03:16:44;;;;;;;10.68;7.57;;;21.20;92.30;;;;;;7391150;19;19910;-78
2023/09/14 03:19:13;;;;;;;18.90;6.57;;;21.10;92.10;;;;;;7393498;19;20018;-78
2023/09/14 03:21:42;;;;;;;15.57;6.72;;;21.00;92.10;;;;;;7394395;19;20357;-78
2023/09/14 03:24:11;;;;;;;13.63;7.07;;;21.00;92.30;;;;;;7392368;19;20102;-79
2023/09/14 03:26:39;;;;;;;20.65;7.72;;;21.00;92.30;;;;;;7392606;19;20006;-80
2023/09/14 03:29:11;;;;;;;18.63;7.55;;;20.90;92.10;;;;;;7414910;19;20003;-79
2023/09/14 03:31:40;;;;;;;20.73;7.85;;;21.00;92.00;;;;;;7401122;19;20011;-79
2023/09/14 03:34:09;;;;;;;14.95;6.68;;;20.90;92.00;;;;;;7403688;19;20023;-79
2023/09/14 03:36:39;;;;;;;20.75;7.38;;;21.00;92.00;;;;;;7402879;19;20018;-78
2023/09/14 03:39:08;;;;;;;14.10;6.70;;;20.90;91.90;;;;;;7399880;19;20111;-78
2023/09/14 03:41:37;;;;;;;12.35;7.18;;;21.00;91.90;;;;;;7414223;19;20036;-78
2023/09/14 03:44:06;;;;;;;17.25;7.15;;;21.00;91.80;;;;;;7391351;19;20006;-77
2023/09/14 03:46:37;;;;;;;16.27;7.43;;;21.00;91.80;;;;;;7391062;19;20294;-79
2023/09/14 03:49:06;;;;;;;;;;;20.90;91.70;;;;;;7391684;19;20374;-79
2023/09/14 03:51:35;;;;;;;15.05;7.38;;;21.00;91.70;;;;;;7390530;19;19942;-78
2023/09/14 03:54:04;;;;;;;19.30;8.02;;;20.90;91.50;;;;;;7390731;19;19999;-78
2023/09/14 03:56:33;;;;;;;13.63;7.28;;;20.90;91.50;;;;;;7410910;19;20007;-79
2023/09/14 03:59:01;;;;;;;13.18;6.97;;;20.80;91.60;;;;;;7391936;19;20292;-79
2023/09/14 04:01:30;;;;;;;18.52;7.38;;;20.80;91.70;;;;;;7391420;19;20026;-79
2023/09/14 04:04:02;;;;;;;17.75;7.38;;;20.70;91.70;;;;;;7392490;19;20002;-78
2023/09/14 04:06:31;;;;;;;16.70;7.47;;;20.70;91.70;;;;;;7393698;19;20010;-79
2023/09/14 04:08:59;;;;;;;16.20;7.40;;;20.70;91.70;;;;;;7390763;19;20358;-79
2023/09/14 04:11:28;;;;;;;16.00;7.57;;;20.70;91.60;;;;;;7412226;19;20011;-79
2023/09/14 04:13:58;;;;;;;19.50;6.93;;;20.70;91.60;;;;;;7390224;19;20291;-79
2023/09/14 04:16:28;;;;;;;14.55;6.85;;;20.70;92.00;;;;;;7391604;19;20003;-79
2023/09/14 04:19:00;;;;;;;16.48;6.55;;;20.60;91.60;;;;;;7392478;19;19999;-79
2023/09/14 04:21:32;;;;;;;11.63;7.18;;;20.60;91.50;;;;;;7392650;19;20015;-79
2023/09/14 04:24:00;;;;;;;17.40;6.72;;;20.60;91.50;;;;;;7390723;19;20006;-79
2023/09/14 04:26:29;;;;;;;16.92;7.70;;;20.60;91.50;;;;;;7415058;19;20006;-78
2023/09/14 04:28:58;;;;;;;19.10;7.68;;;20.60;91.50;;;;;;7391790;19;20006;-79
2023/09/14 04:31:28;;;;;;;23.27;7.50;;;20.50;91.60;;;;;;7393091;19;19999;-78
2023/09/14 04:33:56;;;;;;;13.07;6.38;;;20.50;91.60;;;;;;7392104;19;20015;-79
2023/09/14 04:36:25;;;;;;;20.77;7.13;;;20.50;91.50;;;;;;7392045;19;20342;-78
2023/09/14 04:38:56;;;;;;;10.75;6.97;;;20.50;91.50;;;;;;7389999;19;20062;-79
2023/09/14 04:41:28;;;;;;;8.60;6.43;;;20.50;91.50;;;;;;7414495;19;20011;-79
2023/09/14 04:43:56;;;;;;;13.15;6.97;;;20.50;91.70;;;;;;7388349;19;20102;-80
2023/09/14 04:46:25;;;;;;;12.82;7.18;;;20.40;91.60;;;;;;7389020;19;20350;-79
2023/09/14 04:48:54;;;;;;;17.58;8.30;;;20.40;91.70;;;;;;7389025;19;20014;-79
2023/09/14 04:51:23;;;;;;;13.82;7.45;;;20.30;91.80;;;;;;7390152;19;20032;-78
2023/09/14 04:53:52;;;;;;;15.23;7.70;;;20.30;91.80;;;;;;7387682;19;20148;-79
2023/09/14 04:56:23;;;;;;;16.95;7.32;;;20.30;91.80;;;;;;7409322;19;20007;-79
2023/09/14 04:58:52;;;;;;;16.08;7.80;;;20.20;91.90;;;;;;7388539;19;20035;-79
2023/09/14 05:01:21;;;;;;;14.05;7.50;;;20.20;91.90;;;;;;7389263;19;20358;-79
2023/09/14 05:03:50;;;;;;;26.20;7.78;;;20.20;92.00;;;;;;7389369;19;20035;-78
2023/09/14 05:06:18;;;;;;;15.10;6.82;;;20.20;91.90;;;;;;7390267;19;20014;-79
2023/09/14 05:08:47;;;;;;;15.38;7.05;;;20.20;91.80;;;;;;7386839;19;20051;-78
2023/09/14 05:11:16;;;;;;;19.02;5.97;;;20.20;91.80;;;;;;7407042;19;20003;-79
2023/09/14 05:13:47;;;;;;;13.43;6.88;;;20.20;91.80;;;;;;7389140;19;20003;-78
2023/09/14 05:16:16;;;;;;;18.60;6.90;;;20.20;91.80;;;;;;7391175;19;20007;-78
2023/09/14 05:18:45;;;;;;;9.65;6.50;;;20.20;91.70;;;;;;7391023;19;20361;-78
2023/09/14 05:21:14;;;;;;;15.68;6.43;;;20.30;91.50;;;;;;7390357;19;20006;-80
2023/09/14 05:23:44;;;;;;;11.40;6.30;;;20.30;91.50;;;;;;7391838;19;20354;-79
2023/09/14 05:26:13;;;;;;;13.20;6.65;;;20.30;91.40;;;;;;7413628;19;20014;-79
2023/09/14 05:28:42;;;;;;;10.52;6.30;;;20.30;91.40;;;;;;7399199;19;20035;-79
2023/09/14 05:31:13;;;;;;;11.50;6.65;;;20.30;91.50;;;;;;7402999;19;20075;-80
2023/09/14 05:33:42;;;;;;;;;;;20.30;91.50;;;;;;7402697;19;20011;-80
2023/09/14 05:36:11;;;;;;;18.65;6.93;;;20.30;91.40;;;;;;7404837;19;19910;-80
2023/09/14 05:38:39;;;;;;;13.05;6.80;;;20.30;91.30;;;;;;7397734;19;20239;-80
2023/09/14 05:41:08;;;;;;;16.60;6.60;;;20.30;91.80;;;;;;7409344;19;20031;-80
2023/09/14 05:43:41;;;;;;;13.27;6.68;;;20.30;91.40;;;;;;7390504;19;20054;-80
2023/09/14 05:46:09;;;;;;;16.63;7.70;;;20.20;91.50;;;;;;7389505;19;20380;-79
2023/09/14 05:48:42;;;;;;;16.33;7.88;;;20.20;91.50;;;;;;7390087;19;20285;-79
2023/09/14 05:51:11;;;;;;;13.15;8.10;;;20.20;91.40;;;;;;7392858;19;20087;-79
2023/09/14 05:53:39;;;;;;;21.05;7.63;;;20.20;91.50;;;;;;7389117;19;20223;-79
2023/09/14 05:56:08;;;;;;;21.60;8.40;;;20.10;91.60;;;;;;7411034;19;20014;-79
2023/09/14 05:58:37;;;;;;;16.45;8.00;;;20.10;91.70;;;;;;7388351;19;20031;-78
2023/09/14 06:01:06;;;;;;;20.88;8.25;;;20.10;91.80;;;;;;7387413;19;20017;-79
2023/09/14 06:03:35;;;;;;;19.50;8.10;;;20.10;91.90;;;;;;7385457;19;20060;-78
2023/09/14 06:06:06;;;;;;;19.10;7.80;;;20.10;92.20;;;;;;7386438;19;20009;-78
2023/09/14 06:08:35;;;;;;;15.18;7.85;;;20.10;91.80;;;;;;7405978;19;20339;-79
2023/09/14 06:11:04;;;;;;;10.80;7.75;;;20.10;91.90;;;;;;7386243;19;20007;-79
2023/09/14 06:13:34;;;;;;;15.13;7.55;;;20.10;92.00;;;;;;7386166;19;20023;-79
2023/09/14 06:16:03;;;;;;;16.45;7.47;;;20.10;92.10;;;;;;7388342;19;20106;-79
2023/09/14 06:18:32;;;;;;;25.15;8.00;;;20.10;92.00;;;;;;7388675;19;20018;-79
2023/09/14 06:21:01;;;;;;;14.45;7.05;;;20.10;91.90;;;;;;7386128;19;20231;-79
2023/09/14 06:23:32;;;;;;;11.68;6.50;;;20.20;92.00;;;;;;7407792;19;20003;-79
2023/09/14 06:26:01;;;;;;;13.70;7.25;;;20.20;92.00;;;;;;7387335;19;20010;-78
2023/09/14 06:28:29;;;;;;;15.57;7.28;;;20.30;91.90;;;;;;7389234;19;20361;-78
2023/09/14 06:30:59;;;;;;;12.32;7.22;;;20.30;91.80;;;;;;7385558;19;20006;-79
2023/09/14 06:33:28;;;;;;;17.73;7.40;;;20.30;91.90;;;;;;7383344;19;20002;-80
2023/09/14 06:35:56;;;;;;;23.92;7.35;;;20.30;92.00;;;;;;7386219;19;20011;-80
2023/09/14 06:38:25;;;;;;;30.08;7.97;;;20.40;92.00;;;;;;7407296;19;20002;-78
2023/09/14 06:40:56;;;;;;;23.65;7.18;;;20.40;92.10;;;;;;7388556;19;20393;-79
2023/09/14 06:43:25;;;;;;;;;;;20.50;92.20;;;;;;7392754;19;20035;-78
2023/09/14 06:45:55;;;;;;;16.30;7.25;;;20.60;92.30;;;;;;7393119;19;19922;-78
2023/09/14 06:48:23;;;;;;;16.27;7.28;;;20.50;92.00;;;;;;7392178;19;20246;-79
2023/09/14 06:50:52;;;;;;;17.05;8.00;;;20.50;92.10;;;;;;7394776;19;20015;-79
2023/09/14 06:53:21;;;;;;;15.50;7.55;;;20.50;92.30;;;;;;7415773;19;20011;-79
2023/09/14 06:55:50;;;;;;;17.48;7.88;;;20.50;92.40;;;;;;7393253;19;20007;-79
2023/09/14 06:58:21;;;;;;;14.43;7.55;;;20.60;92.60;;;;;;7391947;19;20062;-80
2023/09/14 07:00:50;;;;;;;;;;;20.60;92.50;;;;;;7392775;19;20035;-80
2023/09/14 07:03:19;;;;;;;25.38;9.05;;;20.70;92.50;;;;;;7391687;19;19906;-79
2023/09/14 07:05:47;;;;;;;18.35;9.23;;;20.70;92.30;;;;;;7391279;19;20003;-80
2023/09/14 07:08:16;;;;;;;14.77;10.00;;;20.70;92.30;;;;;;7413656;19;20002;-79
2023/09/14 07:10:45;;;;;;;20.67;10.30;;;20.60;92.30;;;;;;7394361;19;19998;-79
2023/09/14 07:13:14;;;;;;;20.73;11.18;;;20.60;92.50;;;;;;7395225;19;20015;-79
2023/09/14 07:15:45;;;;;;;24.98;11.23;;;20.50;92.70;;;;;;7392474;19;20361;-79
2023/09/14 07:18:27;;;;;;;22.48;10.02;;;20.50;92.90;;;;;;7392044;19;20007;-79
2023/09/14 07:20:57;;;;;;;19.98;10.93;;;20.60;93.20;;;;;;7393792;19;20006;-79
2023/09/14 07:23:26;;;;;;;24.42;13.27;;;20.70;93.20;;;;;;7410683;19;20031;-79
2023/09/14 07:25:55;;;;;;;23.83;12.63;;;20.70;93.20;;;;;;7391178;19;20386;-79
2023/09/14 07:28:24;;;;;;;37.50;16.25;;;20.80;93.20;;;;;;7397791;19;20002;-79
2023/09/14 07:30:56;;;;;;;36.80;17.48;;;20.90;93.20;;;;;;7408975;19;20007;-79
2023/09/14 07:33:26;;;;;;;38.20;19.77;;;21.00;93.20;;;;;;7402033;19;20042;-79
2023/09/14 07:35:55;;;;;;;40.90;19.73;;;21.10;93.20;;;;;;7399030;19;20006;-79
2023/09/14 07:38:24;;;;;;;34.63;18.15;;;21.10;93.30;;;;;;7418274;19;20007;-79
2023/09/14 07:40:53;;;;;;;37.40;17.60;;;21.20;93.50;;;;;;7392844;19;20219;-79
2023/09/14 07:43:21;;;;;;;39.80;17.38;;;21.30;93.50;;;;;;7392212;19;20003;-79
2023/09/14 07:45:50;;;;;;;32.00;17.25;;;21.40;93.50;;;;;;7391632;19;20034;-79
2023/09/14 07:48:21;;;;;;;27.63;16.35;;;21.50;93.50;;;;;;7393628;19;20092;-80
2023/09/14 07:50:52;;;;;;;34.47;16.88;;;21.60;93.60;;;;;;7392638;19;20007;-80
2023/09/14 07:53:21;;;;;;;28.73;15.60;;;21.60;93.50;;;;;;7411554;19;20010;-79
2023/09/14 07:55:52;;;;;;;30.10;16.60;;;21.70;93.50;;;;;;7392076;19;20019;-78
2023/09/14 07:58:21;;;;;;;28.73;16.50;;;21.80;93.50;;;;;;7392684;19;20015;-79
2023/09/14 08:00:52;;;;;;;27.95;17.17;;;21.90;93.50;;;;;;7390254;19;20244;-78
2023/09/14 08:03:25;;;;;;;25.60;15.40;;;22.00;93.50;;;;;;7391516;19;20027;-78
2023/09/14 08:05:54;;;;;;;25.35;14.25;;;22.00;93.40;;;;;;7389287;19;20334;-79
2023/09/14 08:08:22;;;;;;;26.90;14.77;;;22.10;93.30;;;;;;7410589;19;20006;-79
2023/09/14 08:10:52;;;;;;;23.88;14.13;;;22.20;93.30;;;;;;7390388;19;20130;-78
2023/09/14 08:13:21;;;;;;;20.33;12.50;;;22.20;93.20;;;;;;7390494;19;20006;-78
2023/09/14 08:15:50;;;;;;;22.95;12.60;;;22.30;93.20;;;;;;7388490;19;20034;-79
2023/09/14 08:18:19;;;;;;;18.92;10.20;;;22.30;93.10;;;;;;7388787;19;20264;-79
2023/09/14 08:20:50;;;;;;;16.58;9.18;;;22.40;93.00;;;;;;7395190;19;20215;-78
2023/09/14 08:23:19;;;;;;;;;;;22.40;92.90;;;;;;7411794;19;20003;-79
2023/09/14 08:25:48;;;;;;;13.63;7.93;;;22.50;92.70;;;;;;7395960;19;19938;-79
2023/09/14 08:28:18;;;;;;;13.55;7.68;;;22.50;92.20;;;;;;7391827;19;20011;-80
2023/09/14 08:30:48;;;;;;;10.93;7.53;;;22.50;92.10;;;;;;7389864;19;20015;-79
2023/09/14 08:33:20;;;;;;;16.13;9.95;;;22.50;92.00;;;;;;7389584;19;20007;-79
2023/09/14 08:35:51;;;;;;;24.27;11.95;;;22.50;92.00;;;;;;7389714;19;20007;-79
2023/09/14 08:38:21;;;;;;;26.30;12.07;;;22.50;92.10;;;;;;7411813;19;20008;-79
2023/09/14 08:40:55;;;;;;;22.60;12.18;;;22.60;92.20;;;;;;7389024;19;20085;-79
2023/09/14 08:43:24;;;;;;;31.13;13.30;;;22.60;92.40;;;;;;7389214;19;19999;-79
2023/09/14 08:45:53;;;;;;;22.08;13.57;;;22.70;92.40;;;;;;7390425;19;20007;-79
2023/09/14 08:48:24;;;;;;;21.88;13.73;;;22.70;92.40;;;;;;7388452;19;20007;-80
2023/09/14 08:50:57;;;;;;;23.58;13.15;;;22.70;92.30;;;;;;7389591;19;20016;-79
2023/09/14 08:53:26;;;;;;;26.33;13.82;;;22.80;92.30;;;;;;7408791;19;20040;-79
2023/09/14 08:55:55;;;;;;;33.90;14.25;;;22.80;92.20;;;;;;7385727;19;20007;-79
2023/09/14 08:58:25;;;;;;;25.52;12.68;;;22.90;92.20;;;;;;7388866;19;20007;-79
2023/09/14 09:00:56;;;;;;;24.00;14.00;;;22.90;92.20;;;;;;7387613;19;20003;-78
2023/09/14 09:03:28;;;;;;;;;;;22.90;92.10;;;;;;7385125;19;20003;-79
2023/09/14 09:05:59;;;;;;;27.30;13.68;;;23.00;92.00;;;;;;7386729;19;19929;-79
2023/09/14 09:08:30;;;;;;;27.88;15.13;;;23.00;92.00;;;;;;7411012;19;20026;-80
2023/09/14 09:10:59;;;;;;;29.80;13.98;;;23.10;92.10;;;;;;7387395;19;20003;-79
2023/09/14 09:13:35;;;;;;;28.63;13.38;;;23.10;92.10;;;;;;7387737;19;20358;-79
2023/09/14 09:16:04;;;;;;;30.45;14.00;;;23.20;91.90;;;;;;7387891;19;20011;-79
2023/09/14 09:18:35;;;;;;;35.60;13.25;;;23.20;91.70;;;;;;7387580;19;20256;-80
2023/09/14 09:21:08;;;;;;;26.23;13.00;;;23.20;91.80;;;;;;7389367;19;20038;-79
2023/09/14 09:23:37;;;;;;;22.35;11.02;;;23.30;91.80;;;;;;7411203;19;20007;-79
2023/09/14 09:26:06;;;;;;;28.13;10.70;;;23.30;91.50;;;;;;7387792;19;20007;-78
2023/09/14 09:28:35;;;;;;;25.23;12.18;;;23.40;91.40;;;;;;7386844;19;20024;-80
2023/09/14 09:31:05;;;;;;;24.83;11.35;;;23.50;91.40;;;;;;7386706;19;20013;-80
2023/09/14 09:33:37;;;;;;;26.63;11.07;;;23.60;91.30;;;;;;7387121;19;20064;-79
2023/09/14 09:36:19;;;;;;;21.70;10.02;;;23.60;91.00;;;;;;7386335;19;20030;-80
2023/09/14 09:38:50;;;;;;;26.60;10.60;;;23.70;90.90;;;;;;7389559;19;20011;-80
2023/09/14 09:41:20;;;;;;;20.38;10.35;;;23.70;90.70;;;;;;7424814;19;20043;-79
2023/09/14 09:43:52;;;;;;;19.13;9.73;;;23.70;90.60;;;;;;7397388;19;20016;-79
2023/09/14 09:46:21;;;;;;;16.45;8.45;;;23.80;90.40;;;;;;7386233;19;20031;-79
2023/09/14 09:48:50;;;;;;;19.30;9.50;;;23.70;90.10;;;;;;7387030;19;20014;-80
2023/09/14 09:51:24;;;;;;;16.52;8.95;;;23.70;90.00;;;;;;7387797;19;20031;-79
2023/09/14 09:54:09;;;;;;;16.45;8.98;;;23.70;90.10;;;;;;7387731;19;20027;-79
2023/09/14 09:56:38;;;;;;;13.88;8.80;;;23.70;90.00;;;;;;7401708;19;20013;-80
2023/09/14 09:59:09;;;;;;;20.73;8.85;;;23.80;89.40;;;;;;7407801;19;20006;-79
2023/09/14 10:01:38;;;;;;;;;;;23.70;89.30;;;;;;7388265;19;20002;-79
2023/09/14 10:04:15;;;;;;;18.35;8.50;;;23.70;89.10;;;;;;7386623;19;19914;-79
2023/09/14 10:06:52;;;;;;;15.80;9.25;;;23.80;89.00;;;;;;7388248;19;20250;-79
2023/09/14 10:09:22;;;;;;;16.63;7.82;;;23.70;89.40;;;;;;7388165;19;20030;-79
2023/09/14 10:11:56;;;;;;;15.60;6.60;;;23.70;89.70;;;;;;7386585;19;20043;-80
2023/09/14 10:14:30;;;;;;;14.68;7.82;;;23.80;89.80;;;;;;7407771;19;20023;-79
2023/09/14 10:17:01;;;;;;;20.50;7.32;;;23.80;89.00;;;;;;7389787;19;20361;-79
2023/09/14 10:19:30;;;;;;;;;;;23.90;88.60;;;;;;7388649;19;20002;-79
2023/09/14 10:22:02;;;;;;;20.42;6.40;;;23.90;87.80;;;;;;7389138;19;19911;-79
2023/09/14 10:24:32;;;;;;;11.10;5.40;;;23.90;87.50;;;;;;7388837;19;20011;-79
2023/09/14 10:27:01;;;;;;;13.23;5.22;;;23.90;86.10;;;;;;7387336;19;20036;-78
2023/09/14 10:29:31;;;;;;;13.23;6.55;;;23.90;85.40;;;;;;7408591;19;20010;-79
2023/09/14 10:32:00;;;;;;;8.20;4.97;;;24.00;85.10;;;;;;7388559;19;20346;-80
2023/09/14 10:34:32;;;;;;;9.60;4.28;;;24.00;85.20;;;;;;7387848;19;20350;-80
2023/09/14 10:37:04;;;;;;;;;;;24.00;84.40;;;;;;7390192;19;20390;-79
2023/09/14 10:39:38;;;;;;;8.07;4.40;;;24.00;83.80;;;;;;7388757;19;19917;-79
2023/09/14 10:42:10;;;;;;;7.07;3.90;;;24.10;83.70;;;;;;7387543;19;20014;-79
2023/09/14 10:44:39;;;;;;;10.10;4.90;;;24.10;83.20;;;;;;7387501;19;20010;-80
2023/09/14 10:47:09;;;;;;;9.38;4.00;;;24.20;82.80;;;;;;7407960;19;20003;-80
2023/09/14 10:49:41;;;;;;;10.35;4.78;;;24.20;82.90;;;;;;7388120;19;20010;-80
2023/09/14 10:52:12;;;;;;;9.35;5.10;;;24.20;82.70;;;;;;7387543;19;20012;-79
2023/09/14 10:54:41;;;;;;;5.78;4.25;;;24.30;83.60;;;;;;7389000;19;20042;-80
2023/09/14 10:57:23;;;;;;;12.35;3.63;;;24.20;84.10;;;;;;7387730;19;20010;-79
2023/09/14 10:59:53;;;;;;;7.68;3.88;;;24.30;83.30;;;;;;7385705;19;20014;-79
2023/09/14 11:02:59;;;;;;;8.18;4.28;;;24.30;82.50;;;;;;7406977;19;20040;-78
2023/09/14 11:05:40;;;;;;;8.15;3.88;;;24.40;82.50;;;;;;7386591;19;20017;-79
2023/09/14 11:08:14;;;;;;;7.80;4.00;;;24.40;82.00;;;;;;7387396;19;20011;-80
2023/09/14 11:10:58;;;;;;;6.78;3.10;;;24.50;81.60;;;;;;7386323;19;20358;-79
2023/09/14 11:13:32;;;;;;;5.63;2.88;;;24.50;80.50;;;;;;7388262;19;20007;-80
2023/09/14 11:16:06;;;;;;;6.35;2.90;;;24.50;80.10;;;;;;7384660;19;20003;-80
2023/09/14 11:18:54;;;;;;;7.57;2.83;;;24.50;78.90;;;;;;7386659;19;20054;-80
2023/09/14 11:21:42;;;;;;;7.72;3.00;;;24.50;78.80;;;;;;7387866;19;20020;-80
2023/09/14 11:24:18;;;;;;;5.88;3.55;;;24.50;80.00;;;;;;7386307;19;20006;-80
2023/09/14 11:26:51;;;;;;;7.40;3.28;;;24.60;81.60;;;;;;7389718;19;20035;-80
2023/09/14 11:29:20;;;;;;;10.20;3.60;;;24.70;81.00;;;;;;7415605;19;20002;-79
2023/09/14 11:31:58;;;;;;;12.15;3.42;;;24.70;80.40;;;;;;7396038;19;20023;-79
2023/09/14 11:34:29;;;;;;;7.30;3.50;;;24.90;80.00;;;;;;7396380;19;20003;-80
2023/09/14 11:37:00;;;;;;;6.35;3.67;;;25.00;78.80;;;;;;7407458;19;20024;-79
2023/09/14 11:39:34;;;;;;;6.47;3.70;;;25.00;77.70;;;;;;7408247;19;20062;-78
2023/09/14 11:42:06;;;;;;;5.93;3.42;;;25.10;77.90;;;;;;7406540;19;20003;-78
2023/09/14 11:44:50;;;;;;;9.63;3.20;;;25.20;77.40;;;;;;7431962;19;20010;-79
2023/09/14 11:47:20;;;;;;;6.57;3.50;;;25.40;78.10;;;;;;7397938;19;20027;-78
2023/09/14 11:49:57;;;;;;;7.05;3.17;;;25.50;78.60;;;;;;7396845;19;20007;-79
2023/09/14 11:52:31;;;;;;;8.35;3.35;;;25.60;78.30;;;;;;7398159;19;20015;-79
2023/09/14 11:55:03;;;;;;;5.03;3.00;;;25.70;77.40;;;;;;7398405;19;20006;-78
2023/09/14 11:57:32;;;;;;;4.82;3.00;;;25.80;77.20;;;;;;7394364;19;20023;-78
2023/09/14 12:00:01;;;;;;;5.45;3.50;;;25.80;76.40;;;;;;7391222;19;20015;-80
2023/09/14 12:02:31;;;;;;;6.97;3.55;;;25.80;76.10;;;;;;7415340;19;20017;-80
2023/09/14 12:05:00;;;;;;;5.78;3.65;;;25.70;77.10;;;;;;7391974;19;20011;-80
2023/09/14 12:07:29;;;;;;;19.55;3.63;;;25.70;76.20;;;;;;7391928;19;20075;-79
2023/09/14 12:09:59;;;;;;;10.73;3.83;;;25.60;76.40;;;;;;7394060;19;19998;-79
2023/09/14 12:12:34;;;;;;;6.53;3.60;;;25.60;76.60;;;;;;7391884;19;20067;-80
2023/09/14 12:15:03;;;;;;;6.47;3.72;;;25.60;76.40;;;;;;7392521;19;20074;-80
2023/09/14 12:17:32;;;;;;;10.52;4.75;;;25.60;77.00;;;;;;7414139;19;20002;-79
2023/09/14 12:20:04;;;;;;;6.13;3.33;;;25.50;77.40;;;;;;7391734;19;20366;-79
2023/09/14 12:22:45;;;;;;;5.70;3.38;;;25.60;78.40;;;;;;7391747;19;20006;-79
2023/09/14 12:25:16;;;;;;;18.75;4.13;;;25.60;78.80;;;;;;7393096;19;20092;-79
2023/09/14 12:27:48;;;;;;;15.52;5.25;;;25.60;78.60;;;;;;7391155;19;19998;-79
2023/09/14 12:30:18;;;;;;;12.13;5.30;;;25.70;79.50;;;;;;7391595;19;20006;-78
2023/09/14 12:32:49;;;;;;;16.70;5.30;;;25.70;78.30;;;;;;7391786;19;20016;-80
2023/09/14 12:35:19;;;;;;;5.38;3.15;;;25.70;78.00;;;;;;7413771;19;20094;-79
2023/09/14 12:37:48;;;;;;;5.70;3.30;;;25.70;78.10;;;;;;7391217;19;20039;-79
2023/09/14 12:40:17;;;;;;;6.00;3.65;;;25.90;77.90;;;;;;7391520;19;20040;-79
2023/09/14 12:42:49;;;;;;;7.03;3.75;;;26.00;76.70;;;;;;7393032;19;20003;-78
2023/09/14 12:45:18;;;;;;;11.02;3.20;;;26.00;76.30;;;;;;7392494;19;20031;-80
2023/09/14 12:47:48;;;;;;;6.85;3.38;;;26.00;76.80;;;;;;7391896;19;20128;-80
2023/09/14 12:50:20;;;;;;;7.33;3.30;;;26.00;77.60;;;;;;7415632;19;20427;-79
2023/09/14 12:52:50;;;;;;;9.80;3.53;;;26.10;77.60;;;;;;7393820;19;19999;-80
2023/09/14 12:55:20;;;;;;;6.50;3.58;;;26.20;77.70;;;;;;7392650;19;20014;-79
2023/09/14 12:57:53;;;;;;;5.75;3.42;;;26.40;76.50;;;;;;7393505;19;20382;-80